Pagrindinis puslapis
METAR-TAF:

METAR-TAF

Oro uostai :

Burlengė, Švedija

platuma: 60-26N, ilguma: 015-31E, Aukštis: 145 m

Dabartinis oras

Ataskaita buvo paskelbta 38 minutes, ne 08:50 UTC
Vėjas 6 kt iš Vakarų/Šiaurės Vakarų
Temperatūra -11°C
Drėgmė 92%
Slėgis 1007 hPa
Matomumas 10 km arba daugiau
nėra debesų žemiau 1500 m ir nėra kamuolinių lietaus debesų

METAR: ESSD 070850Z 30006KT CAVOK M11/M12 Q1007

Laikas: 10:28 (09:28 UTC)

Prognozė

Ataskaita buvo paskelbta 58 minutes, ne 08:30 UTC
Prognozė galioja nuo 07 metu 09 UTC su 07 metu 16 UTC
Vėjas 5 kt iš Vakarų
Matomumas 10 km arba daugiau
nėra debesų žemiau 1500 m ir nėra kamuolinių lietaus debesų

TAF: ESSD 070830Z 0709/0716 26005KT CAVOK

Orai ataskaitas ir orų prognozės (METAR, TAF).

turimą stotys yra geltonos ir raudonos taškus žemėlapyje.

Perkelti pele per norėdami pamatyti stoties vardą.

Tada spustelėkite, norėdami matyti oro stebėjimo ir prognozės.

Norėdami pakeisti žemėlapį: spustelėkite ant žalios mygtukų su juodo kryžiaus žemyn,; žalią mygtuką su brūkšneliu, jei norite nutolinti; arba žalių rodyklių gretimoms žemėlapius.


METAR-TAF: